sensor_id;sensor_type;location;lat;lon;timestamp;P1;durP1;ratioP1;P2;durP2;ratioP2
72586;SDS011;60621;49.576;11.024;2023-06-01T00:00:03;5.88;;;2.67;;
72586;SDS011;60621;49.576;11.024;2023-06-01T00:01:10;6.53;;;2.92;;
72586;SDS011;60621;49.576;11.024;2023-06-01T00:02:13;5.82;;;2.80;;
72586;SDS011;60621;49.576;11.024;2023-06-01T00:03:16;7.90;;;2.80;;
72586;SDS011;60621;49.576;11.024;2023-06-01T00:04:18;5.82;;;2.40;;
72586;SDS011;60621;49.576;11.024;2023-06-01T00:05:20;5.88;;;2.58;;
72586;SDS011;60621;49.576;11.024;2023-06-01T00:06:21;4.72;;;2.20;;
72586;SDS011;60621;49.576;11.024;2023-06-01T00:07:23;8.27;;;2.60;;
72586;SDS011;60621;49.576;11.024;2023-06-01T00:08:25;4.82;;;2.33;;
72586;SDS011;60621;49.576;11.024;2023-06-01T00:09:27;5.68;;;2.55;;
72586;SDS011;60621;49.576;11.024;2023-06-01T00:10:28;7.45;;;2.50;;
72586;SDS011;60621;49.576;11.024;2023-06-01T00:11:30;5.20;;;2.22;;
72586;SDS011;60621;49.576;11.024;2023-06-01T00:12:32;5.40;;;2.40;;
72586;SDS011;60621;49.576;11.024;2023-06-01T00:13:34;5.43;;;2.45;;
72586;SDS011;60621;49.576;11.024;2023-06-01T00:14:39;4.90;;;2.30;;
72586;SDS011;60621;49.576;11.024;2023-06-01T00:15:41;6.15;;;2.40;;
72586;SDS011;60621;49.576;11.024;2023-06-01T00:16:42;5.38;;;2.45;;
72586;SDS011;60621;49.576;11.024;2023-06-01T00:17:46;6.35;;;2.42;;
72586;SDS011;60621;49.576;11.024;2023-06-01T00:18:47;4.97;;;2.60;;
72586;SDS011;60621;49.576;11.024;2023-06-01T00:19:50;5.53;;;2.42;;
72586;SDS011;60621;49.576;11.024;2023-06-01T00:20:54;7.05;;;2.75;;
72586;SDS011;60621;49.576;11.024;2023-06-01T00:21:55;4.70;;;2.40;;
72586;SDS011;60621;49.576;11.024;2023-06-01T00:22:58;5.47;;;2.50;;
72586;SDS011;60621;49.576;11.024;2023-06-01T00:24:04;5.22;;;2.50;;
72586;SDS011;60621;49.576;11.024;2023-06-01T00:25:06;5.72;;;2.35;;
72586;SDS011;60621;49.576;11.024;2023-06-01T00:26:09;6.90;;;2.55;;
72586;SDS011;60621;49.576;11.024;2023-06-01T00:27:10;5.53;;;2.75;;
72586;SDS011;60621;49.576;11.024;2023-06-01T00:28:12;5.90;;;2.60;;
72586;SDS011;60621;49.576;11.024;2023-06-01T00:29:13;6.05;;;2.50;;
72586;SDS011;60621;49.576;11.024;2023-06-01T00:30:16;6.45;;;2.65;;
72586;SDS011;60621;49.576;11.024;2023-06-01T00:31:17;4.78;;;2.40;;
72586;SDS011;60621;49.576;11.024;2023-06-01T00:32:19;5.55;;;2.40;;
72586;SDS011;60621;49.576;11.024;2023-06-01T00:33:20;5.07;;;2.53;;
72586;SDS011;60621;49.576;11.024;2023-06-01T00:34:22;5.25;;;2.47;;
72586;SDS011;60621;49.576;11.024;2023-06-01T00:35:24;5.38;;;2.35;;
72586;SDS011;60621;49.576;11.024;2023-06-01T00:36:26;5.43;;;2.33;;
72586;SDS011;60621;49.576;11.024;2023-06-01T00:37:27;4.88;;;2.40;;
72586;SDS011;60621;49.576;11.024;2023-06-01T00:38:30;5.47;;;2.53;;
72586;SDS011;60621;49.576;11.024;2023-06-01T00:39:31;4.90;;;2.33;;
72586;SDS011;60621;49.576;11.024;2023-06-01T00:40:33;5.75;;;2.40;;
72586;SDS011;60621;49.576;11.024;2023-06-01T00:41:36;5.85;;;2.20;;
72586;SDS011;60621;49.576;11.024;2023-06-01T00:42:37;5.22;;;2.30;;
72586;SDS011;60621;49.576;11.024;2023-06-01T00:43:39;5.22;;;2.10;;
72586;SDS011;60621;49.576;11.024;2023-06-01T00:44:41;6.10;;;2.22;;
72586;SDS011;60621;49.576;11.024;2023-06-01T00:45:42;5.20;;;2.30;;
72586;SDS011;60621;49.576;11.024;2023-06-01T00:46:44;4.72;;;2.33;;
72586;SDS011;60621;49.576;11.024;2023-06-01T00:47:46;5.32;;;2.38;;
72586;SDS011;60621;49.576;11.024;2023-06-01T00:48:47;4.47;;;2.13;;
72586;SDS011;60621;49.576;11.024;2023-06-01T00:49:51;5.90;;;2.22;;
72586;SDS011;60621;49.576;11.024;2023-06-01T00:50:53;4.95;;;2.40;;
72586;SDS011;60621;49.576;11.024;2023-06-01T00:51:54;4.88;;;2.33;;
72586;SDS011;60621;49.576;11.024;2023-06-01T00:52:56;5.80;;;2.42;;
72586;SDS011;60621;49.576;11.024;2023-06-01T00:53:59;5.57;;;2.30;;
72586;SDS011;60621;49.576;11.024;2023-06-01T00:55:01;5.55;;;2.20;;
72586;SDS011;60621;49.576;11.024;2023-06-01T00:56:04;5.72;;;2.42;;
72586;SDS011;60621;49.576;11.024;2023-06-01T00:57:06;5.55;;;2.33;;
72586;SDS011;60621;49.576;11.024;2023-06-01T00:58:08;5.53;;;2.20;;
72586;SDS011;60621;49.576;11.024;2023-06-01T00:59:09;5.60;;;2.65;;
72586;SDS011;60621;49.576;11.024;2023-06-01T01:00:13;6.32;;;2.45;;
72586;SDS011;60621;49.576;11.024;2023-06-01T01:01:14;6.70;;;2.50;;
72586;SDS011;60621;49.576;11.024;2023-06-01T01:02:21;6.15;;;2.38;;
72586;SDS011;60621;49.576;11.024;2023-06-01T01:03:22;5.75;;;2.50;;
72586;SDS011;60621;49.576;11.024;2023-06-01T01:04:27;4.95;;;2.38;;
72586;SDS011;60621;49.576;11.024;2023-06-01T01:05:28;5.75;;;2.17;;
72586;SDS011;60621;49.576;11.024;2023-06-01T01:06:37;5.78;;;2.42;;
72586;SDS011;60621;49.576;11.024;2023-06-01T01:07:58;5.63;;;2.58;;
72586;SDS011;60621;49.576;11.024;2023-06-01T01:10:29;6.38;;;2.85;;
72586;SDS011;60621;49.576;11.024;2023-06-01T01:11:35;8.95;;;2.90;;
72586;SDS011;60621;49.576;11.024;2023-06-01T01:12:46;5.55;;;2.40;;
72586;SDS011;60621;49.576;11.024;2023-06-01T01:13:55;7.35;;;2.72;;
72586;SDS011;60621;49.576;11.024;2023-06-01T01:15:12;5.40;;;2.40;;
72586;SDS011;60621;49.576;11.024;2023-06-01T01:16:46;6.20;;;2.53;;
72586;SDS011;60621;49.576;11.024;2023-06-01T01:17:59;5.00;;;2.45;;
72586;SDS011;60621;49.576;11.024;2023-06-01T01:20:21;5.90;;;2.53;;
72586;SDS011;60621;49.576;11.024;2023-06-01T01:21:50;7.13;;;2.60;;
72586;SDS011;60621;49.576;11.024;2023-06-01T01:29:47;6.43;;;2.70;;
72586;SDS011;60621;49.576;11.024;2023-06-01T01:31:23;5.53;;;2.47;;
72586;SDS011;60621;49.576;11.024;2023-06-01T01:32:26;8.00;;;2.33;;
72586;SDS011;60621;49.576;11.024;2023-06-01T01:33:29;5.43;;;2.40;;
72586;SDS011;60621;49.576;11.024;2023-06-01T01:34:40;6.93;;;2.15;;
72586;SDS011;60621;49.576;11.024;2023-06-01T01:35:46;5.97;;;2.70;;
72586;SDS011;60621;49.576;11.024;2023-06-01T01:36:56;7.45;;;2.83;;
72586;SDS011;60621;49.576;11.024;2023-06-01T01:38:08;5.82;;;2.63;;
72586;SDS011;60621;49.576;11.024;2023-06-01T01:39:11;4.47;;;2.13;;
72586;SDS011;60621;49.576;11.024;2023-06-01T01:40:30;6.28;;;2.63;;
72586;SDS011;60621;49.576;11.024;2023-06-01T01:41:41;7.93;;;2.33;;
72586;SDS011;60621;49.576;11.024;2023-06-01T01:42:45;4.72;;;2.42;;
72586;SDS011;60621;49.576;11.024;2023-06-01T01:43:52;5.50;;;2.42;;
72586;SDS011;60621;49.576;11.024;2023-06-01T01:44:55;5.63;;;2.50;;
72586;SDS011;60621;49.576;11.024;2023-06-01T01:47:38;4.95;;;2.25;;
72586;SDS011;60621;49.576;11.024;2023-06-01T01:49:09;7.05;;;2.70;;
72586;SDS011;60621;49.576;11.024;2023-06-01T01:50:31;5.18;;;2.45;;
72586;SDS011;60621;49.576;11.024;2023-06-01T01:53:36;6.07;;;2.78;;
72586;SDS011;60621;49.576;11.024;2023-06-01T01:54:53;7.93;;;2.80;;
72586;SDS011;60621;49.576;11.024;2023-06-01T01:55:58;6.45;;;2.40;;
72586;SDS011;60621;49.576;11.024;2023-06-01T01:57:16;4.53;;;2.33;;
72586;SDS011;60621;49.576;11.024;2023-06-01T01:58:38;6.82;;;2.70;;
72586;SDS011;60621;49.576;11.024;2023-06-01T02:00:31;5.53;;;2.50;;
72586;SDS011;60621;49.576;11.024;2023-06-01T02:01:54;7.20;;;2.50;;
72586;SDS011;60621;49.576;11.024;2023-06-01T02:03:12;5.20;;;2.72;;
72586;SDS011;60621;49.576;11.024;2023-06-01T02:04:24;6.13;;;2.85;;
72586;SDS011;60621;49.576;11.024;2023-06-01T02:05:42;5.22;;;2.33;;
72586;SDS011;60621;49.576;11.024;2023-06-01T02:06:59;6.55;;;2.90;;
72586;SDS011;60621;49.576;11.024;2023-06-01T02:08:02;6.78;;;2.65;;
72586;SDS011;60621;49.576;11.024;2023-06-01T02:09:09;8.75;;;2.97;;
72586;SDS011;60621;49.576;11.024;2023-06-01T02:10:14;5.50;;;2.53;;
72586;SDS011;60621;49.576;11.024;2023-06-01T02:11:18;5.65;;;2.60;;
72586;SDS011;60621;49.576;11.024;2023-06-01T02:12:27;8.32;;;2.70;;
72586;SDS011;60621;49.576;11.024;2023-06-01T02:13:39;6.00;;;2.65;;
72586;SDS011;60621;49.576;11.024;2023-06-01T02:14:44;4.82;;;2.53;;
72586;SDS011;60621;49.576;11.024;2023-06-01T02:16:05;6.03;;;2.50;;
72586;SDS011;60621;49.576;11.024;2023-06-01T02:17:10;5.07;;;2.40;;
72586;SDS011;60621;49.576;11.024;2023-06-01T02:18:19;5.10;;;2.35;;
72586;SDS011;60621;49.576;11.024;2023-06-01T02:19:25;5.82;;;2.67;;
72586;SDS011;60621;49.576;11.024;2023-06-01T02:21:02;5.28;;;2.10;;
72586;SDS011;60621;49.576;11.024;2023-06-01T02:22:04;7.22;;;2.65;;
72586;SDS011;60621;49.576;11.024;2023-06-01T02:23:07;6.15;;;2.47;;
72586;SDS011;60621;49.576;11.024;2023-06-01T02:24:16;7.75;;;2.35;;
72586;SDS011;60621;49.576;11.024;2023-06-01T02:25:19;6.00;;;2.47;;
72586;SDS011;60621;49.576;11.024;2023-06-01T02:27:25;4.97;;;2.15;;
72586;SDS011;60621;49.576;11.024;2023-06-01T02:28:50;7.97;;;3.05;;
72586;SDS011;60621;49.576;11.024;2023-06-01T02:29:53;7.28;;;2.40;;
72586;SDS011;60621;49.576;11.024;2023-06-01T02:31:05;7.53;;;2.65;;
72586;SDS011;60621;49.576;11.024;2023-06-01T02:32:14;5.32;;;2.30;;
72586;SDS011;60621;49.576;11.024;2023-06-01T02:33:20;5.00;;;2.30;;
72586;SDS011;60621;49.576;11.024;2023-06-01T02:34:28;6.05;;;2.50;;
72586;SDS011;60621;49.576;11.024;2023-06-01T02:35:30;5.88;;;2.42;;
72586;SDS011;60621;49.576;11.024;2023-06-01T02:36:35;6.30;;;2.30;;
72586;SDS011;60621;49.576;11.024;2023-06-01T02:37:40;4.80;;;2.50;;
72586;SDS011;60621;49.576;11.024;2023-06-01T02:38:47;5.13;;;2.30;;
72586;SDS011;60621;49.576;11.024;2023-06-01T02:39:59;6.93;;;2.55;;
72586;SDS011;60621;49.576;11.024;2023-06-01T02:41:05;5.70;;;2.85;;
72586;SDS011;60621;49.576;11.024;2023-06-01T02:42:09;5.20;;;2.30;;
72586;SDS011;60621;49.576;11.024;2023-06-01T02:43:15;6.28;;;2.30;;
72586;SDS011;60621;49.576;11.024;2023-06-01T02:44:19;5.55;;;2.45;;
72586;SDS011;60621;49.576;11.024;2023-06-01T02:45:29;5.78;;;2.47;;
72586;SDS011;60621;49.576;11.024;2023-06-01T02:46:32;8.00;;;2.42;;
72586;SDS011;60621;49.576;11.024;2023-06-01T02:47:41;5.57;;;2.40;;
72586;SDS011;60621;49.576;11.024;2023-06-01T02:48:51;6.45;;;2.55;;
72586;SDS011;60621;49.576;11.024;2023-06-01T02:49:54;7.30;;;2.55;;
72586;SDS011;60621;49.576;11.024;2023-06-01T02:51:20;4.90;;;2.40;;
72586;SDS011;60621;49.576;11.024;2023-06-01T02:52:35;6.35;;;2.60;;
72586;SDS011;60621;49.576;11.024;2023-06-01T02:53:54;5.05;;;2.55;;
72586;SDS011;60621;49.576;11.024;2023-06-01T02:54:58;4.88;;;2.38;;
72586;SDS011;60621;49.576;11.024;2023-06-01T02:57:13;5.88;;;2.47;;
72586;SDS011;60621;49.576;11.024;2023-06-01T02:58:15;5.60;;;2.40;;
72586;SDS011;60621;49.576;11.024;2023-06-01T02:59:44;6.68;;;2.38;;
72586;SDS011;60621;49.576;11.024;2023-06-01T03:01:06;5.13;;;2.38;;
72586;SDS011;60621;49.576;11.024;2023-06-01T03:02:27;6.38;;;2.33;;
72586;SDS011;60621;49.576;11.024;2023-06-01T03:03:32;5.10;;;2.30;;
72586;SDS011;60621;49.576;11.024;2023-06-01T03:04:49;5.13;;;2.67;;
72586;SDS011;60621;49.576;11.024;2023-06-01T03:06:20;5.85;;;2.50;;
72586;SDS011;60621;49.576;11.024;2023-06-01T03:07:48;5.65;;;2.63;;
72586;SDS011;60621;49.576;11.024;2023-06-01T03:08:58;6.38;;;2.63;;
72586;SDS011;60621;49.576;11.024;2023-06-01T03:10:19;7.13;;;2.70;;
72586;SDS011;60621;49.576;11.024;2023-06-01T03:14:09;5.35;;;2.30;;
72586;SDS011;60621;49.576;11.024;2023-06-01T03:16:22;5.93;;;2.70;;
72586;SDS011;60621;49.576;11.024;2023-06-01T03:17:32;6.72;;;2.75;;
72586;SDS011;60621;49.576;11.024;2023-06-01T03:18:48;6.57;;;2.70;;
72586;SDS011;60621;49.576;11.024;2023-06-01T03:20:08;6.43;;;3.10;;
72586;SDS011;60621;49.576;11.024;2023-06-01T03:21:20;5.57;;;2.42;;
72586;SDS011;60621;49.576;11.024;2023-06-01T03:22:24;6.82;;;2.80;;
72586;SDS011;60621;49.576;11.024;2023-06-01T03:23:29;5.80;;;2.70;;
72586;SDS011;60621;49.576;11.024;2023-06-01T03:24:42;5.40;;;2.70;;
72586;SDS011;60621;49.576;11.024;2023-06-01T03:25:44;6.20;;;2.78;;
72586;SDS011;60621;49.576;11.024;2023-06-01T03:27:01;5.57;;;2.30;;
72586;SDS011;60621;49.576;11.024;2023-06-01T03:28:20;6.03;;;2.50;;
72586;SDS011;60621;49.576;11.024;2023-06-01T03:29:36;6.88;;;2.70;;
72586;SDS011;60621;49.576;11.024;2023-06-01T03:30:58;5.53;;;2.53;;
72586;SDS011;60621;49.576;11.024;2023-06-01T03:32:29;6.03;;;2.72;;
72586;SDS011;60621;49.576;11.024;2023-06-01T03:33:48;6.25;;;2.53;;
72586;SDS011;60621;49.576;11.024;2023-06-01T03:34:57;5.20;;;2.63;;
72586;SDS011;60621;49.576;11.024;2023-06-01T03:36:04;6.22;;;2.80;;
72586;SDS011;60621;49.576;11.024;2023-06-01T03:37:14;5.65;;;2.60;;
72586;SDS011;60621;49.576;11.024;2023-06-01T03:38:51;5.60;;;2.63;;
72586;SDS011;60621;49.576;11.024;2023-06-01T03:40:07;6.85;;;2.90;;
72586;SDS011;60621;49.576;11.024;2023-06-01T03:41:34;5.28;;;2.83;;
72586;SDS011;60621;49.576;11.024;2023-06-01T03:42:43;6.75;;;2.80;;
72586;SDS011;60621;49.576;11.024;2023-06-01T03:43:49;6.72;;;2.55;;
72586;SDS011;60621;49.576;11.024;2023-06-01T03:45:17;6.18;;;2.80;;
72586;SDS011;60621;49.576;11.024;2023-06-01T03:46:38;6.78;;;2.60;;
72586;SDS011;60621;49.576;11.024;2023-06-01T03:47:51;5.70;;;2.67;;
72586;SDS011;60621;49.576;11.024;2023-06-01T03:48:56;6.45;;;2.92;;
72586;SDS011;60621;49.576;11.024;2023-06-01T03:50:41;5.25;;;2.78;;
72586;SDS011;60621;49.576;11.024;2023-06-01T03:51:51;5.75;;;2.72;;
72586;SDS011;60621;49.576;11.024;2023-06-01T03:52:53;6.53;;;3.20;;
72586;SDS011;60621;49.576;11.024;2023-06-01T03:53:55;7.20;;;2.88;;
72586;SDS011;60621;49.576;11.024;2023-06-01T03:54:57;6.05;;;3.00;;
72586;SDS011;60621;49.576;11.024;2023-06-01T03:56:01;6.85;;;3.05;;
72586;SDS011;60621;49.576;11.024;2023-06-01T03:57:04;5.60;;;2.60;;
72586;SDS011;60621;49.576;11.024;2023-06-01T03:58:06;5.82;;;2.80;;
72586;SDS011;60621;49.576;11.024;2023-06-01T03:59:08;6.35;;;3.10;;
72586;SDS011;60621;49.576;11.024;2023-06-01T04:00:11;7.15;;;2.95;;
72586;SDS011;60621;49.576;11.024;2023-06-01T04:01:19;6.28;;;2.85;;
72586;SDS011;60621;49.576;11.024;2023-06-01T04:02:21;8.52;;;3.00;;
72586;SDS011;60621;49.576;11.024;2023-06-01T04:03:24;6.60;;;3.00;;
72586;SDS011;60621;49.576;11.024;2023-06-01T04:04:28;6.78;;;3.17;;
72586;SDS011;60621;49.576;11.024;2023-06-01T04:05:30;7.05;;;3.05;;
72586;SDS011;60621;49.576;11.024;2023-06-01T04:06:33;7.18;;;3.42;;
72586;SDS011;60621;49.576;11.024;2023-06-01T04:07:36;5.80;;;2.90;;
72586;SDS011;60621;49.576;11.024;2023-06-01T04:08:38;6.13;;;2.92;;
72586;SDS011;60621;49.576;11.024;2023-06-01T04:09:48;7.07;;;3.22;;
72586;SDS011;60621;49.576;11.024;2023-06-01T04:10:50;9.00;;;3.58;;
72586;SDS011;60621;49.576;11.024;2023-06-01T04:11:52;7.00;;;3.30;;
72586;SDS011;60621;49.576;11.024;2023-06-01T04:12:53;7.07;;;3.10;;
72586;SDS011;60621;49.576;11.024;2023-06-01T04:13:55;8.23;;;3.38;;
72586;SDS011;60621;49.576;11.024;2023-06-01T04:14:57;7.60;;;3.20;;
72586;SDS011;60621;49.576;11.024;2023-06-01T04:15:59;6.15;;;3.15;;
72586;SDS011;60621;49.576;11.024;2023-06-01T04:17:01;7.97;;;3.30;;
72586;SDS011;60621;49.576;11.024;2023-06-01T04:18:03;6.32;;;3.20;;
72586;SDS011;60621;49.576;11.024;2023-06-01T04:19:04;7.03;;;3.05;;
72586;SDS011;60621;49.576;11.024;2023-06-01T04:20:08;10.50;;;3.08;;
72586;SDS011;60621;49.576;11.024;2023-06-01T04:21:11;9.13;;;3.10;;
72586;SDS011;60621;49.576;11.024;2023-06-01T04:22:13;7.45;;;2.85;;
72586;SDS011;60621;49.576;11.024;2023-06-01T04:23:14;7.07;;;3.90;;
72586;SDS011;60621;49.576;11.024;2023-06-01T04:24:17;6.53;;;3.03;;
72586;SDS011;60621;49.576;11.024;2023-06-01T04:25:19;6.20;;;2.95;;
72586;SDS011;60621;49.576;11.024;2023-06-01T04:26:22;6.35;;;3.00;;
72586;SDS011;60621;49.576;11.024;2023-06-01T04:27:23;9.25;;;3.22;;
72586;SDS011;60621;49.576;11.024;2023-06-01T04:28:26;6.50;;;3.20;;
72586;SDS011;60621;49.576;11.024;2023-06-01T04:29:28;6.40;;;3.10;;
72586;SDS011;60621;49.576;11.024;2023-06-01T04:30:29;6.20;;;2.80;;
72586;SDS011;60621;49.576;11.024;2023-06-01T04:31:32;8.35;;;2.92;;
72586;SDS011;60621;49.576;11.024;2023-06-01T04:32:37;8.10;;;3.05;;
72586;SDS011;60621;49.576;11.024;2023-06-01T04:33:41;7.57;;;2.80;;
72586;SDS011;60621;49.576;11.024;2023-06-01T04:34:42;5.10;;;2.75;;
72586;SDS011;60621;49.576;11.024;2023-06-01T04:35:44;6.05;;;2.97;;
72586;SDS011;60621;49.576;11.024;2023-06-01T04:36:46;8.27;;;3.00;;
72586;SDS011;60621;49.576;11.024;2023-06-01T04:37:52;6.53;;;3.25;;
72586;SDS011;60621;49.576;11.024;2023-06-01T04:38:57;6.15;;;3.08;;
72586;SDS011;60621;49.576;11.024;2023-06-01T04:40:02;8.35;;;2.85;;
72586;SDS011;60621;49.576;11.024;2023-06-01T04:41:09;9.57;;;3.30;;
72586;SDS011;60621;49.576;11.024;2023-06-01T04:42:11;5.68;;;2.90;;
72586;SDS011;60621;49.576;11.024;2023-06-01T04:43:14;6.88;;;3.20;;
72586;SDS011;60621;49.576;11.024;2023-06-01T04:44:20;8.88;;;2.90;;
72586;SDS011;60621;49.576;11.024;2023-06-01T04:45:23;7.30;;;3.05;;
72586;SDS011;60621;49.576;11.024;2023-06-01T04:46:27;8.00;;;2.90;;
72586;SDS011;60621;49.576;11.024;2023-06-01T04:47:29;6.93;;;2.92;;
72586;SDS011;60621;49.576;11.024;2023-06-01T04:48:32;5.38;;;2.58;;
72586;SDS011;60621;49.576;11.024;2023-06-01T04:49:34;6.57;;;3.10;;
72586;SDS011;60621;49.576;11.024;2023-06-01T04:50:39;7.05;;;3.03;;
72586;SDS011;60621;49.576;11.024;2023-06-01T04:51:41;7.20;;;2.80;;
72586;SDS011;60621;49.576;11.024;2023-06-01T04:52:43;7.40;;;3.13;;
72586;SDS011;60621;49.576;11.024;2023-06-01T04:53:46;8.25;;;3.08;;
72586;SDS011;60621;49.576;11.024;2023-06-01T04:54:50;7.28;;;2.92;;
72586;SDS011;60621;49.576;11.024;2023-06-01T04:55:52;7.35;;;3.05;;
72586;SDS011;60621;49.576;11.024;2023-06-01T04:56:55;6.50;;;2.67;;
72586;SDS011;60621;49.576;11.024;2023-06-01T04:57:57;6.07;;;3.20;;
72586;SDS011;60621;49.576;11.024;2023-06-01T04:58:58;6.40;;;2.80;;
72586;SDS011;60621;49.576;11.024;2023-06-01T05:00:02;5.97;;;2.58;;
72586;SDS011;60621;49.576;11.024;2023-06-01T05:01:07;7.82;;;3.00;;
72586;SDS011;60621;49.576;11.024;2023-06-01T05:02:09;5.18;;;2.63;;
72586;SDS011;60621;49.576;11.024;2023-06-01T05:03:11;6.18;;;3.00;;
72586;SDS011;60621;49.576;11.024;2023-06-01T05:04:13;6.00;;;2.97;;
72586;SDS011;60621;49.576;11.024;2023-06-01T05:05:15;6.50;;;2.50;;
72586;SDS011;60621;49.576;11.024;2023-06-01T05:06:18;6.72;;;2.83;;
72586;SDS011;60621;49.576;11.024;2023-06-01T05:07:21;5.75;;;2.83;;
72586;SDS011;60621;49.576;11.024;2023-06-01T05:08:22;7.13;;;2.80;;
72586;SDS011;60621;49.576;11.024;2023-06-01T05:09:24;7.78;;;2.75;;
72586;SDS011;60621;49.576;11.024;2023-06-01T05:10:26;6.43;;;2.95;;
72586;SDS011;60621;49.576;11.024;2023-06-01T05:11:28;6.97;;;3.03;;
72586;SDS011;60621;49.576;11.024;2023-06-01T05:12:30;5.57;;;2.78;;
72586;SDS011;60621;49.576;11.024;2023-06-01T05:13:33;5.70;;;2.92;;
72586;SDS011;60621;49.576;11.024;2023-06-01T05:14:35;7.30;;;3.30;;
72586;SDS011;60621;49.576;11.024;2023-06-01T05:15:37;6.40;;;2.92;;
72586;SDS011;60621;49.576;11.024;2023-06-01T05:16:38;7.53;;;2.95;;
72586;SDS011;60621;49.576;11.024;2023-06-01T05:17:40;5.78;;;2.72;;
72586;SDS011;60621;49.576;11.024;2023-06-01T05:18:42;7.97;;;3.10;;
72586;SDS011;60621;49.576;11.024;2023-06-01T05:19:43;6.68;;;3.17;;
72586;SDS011;60621;49.576;11.024;2023-06-01T05:20:45;6.15;;;3.00;;
72586;SDS011;60621;49.576;11.024;2023-06-01T05:21:47;6.47;;;2.67;;
72586;SDS011;60621;49.576;11.024;2023-06-01T05:22:48;5.32;;;2.80;;
72586;SDS011;60621;49.576;11.024;2023-06-01T05:23:50;6.38;;;2.97;;
72586;SDS011;60621;49.576;11.024;2023-06-01T05:24:51;7.38;;;3.17;;
72586;SDS011;60621;49.576;11.024;2023-06-01T05:25:53;4.93;;;2.72;;
72586;SDS011;60621;49.576;11.024;2023-06-01T05:27:04;6.78;;;2.90;;
72586;SDS011;60621;49.576;11.024;2023-06-01T05:28:06;8.43;;;3.45;;
72586;SDS011;60621;49.576;11.024;2023-06-01T05:29:08;9.85;;;3.25;;
72586;SDS011;60621;49.576;11.024;2023-06-01T05:30:09;5.93;;;2.78;;
72586;SDS011;60621;49.576;11.024;2023-06-01T05:31:12;6.00;;;2.80;;
72586;SDS011;60621;49.576;11.024;2023-06-01T05:32:13;6.53;;;2.72;;
72586;SDS011;60621;49.576;11.024;2023-06-01T05:33:15;5.90;;;2.75;;
72586;SDS011;60621;49.576;11.024;2023-06-01T05:34:17;6.43;;;2.70;;
72586;SDS011;60621;49.576;11.024;2023-06-01T05:35:18;6.72;;;2.97;;
72586;SDS011;60621;49.576;11.024;2023-06-01T05:36:21;6.18;;;2.70;;
72586;SDS011;60621;49.576;11.024;2023-06-01T05:37:23;6.03;;;2.83;;
72586;SDS011;60621;49.576;11.024;2023-06-01T05:38:25;6.55;;;2.67;;
72586;SDS011;60621;49.576;11.024;2023-06-01T05:39:27;6.72;;;2.78;;
72586;SDS011;60621;49.576;11.024;2023-06-01T05:40:34;7.25;;;2.83;;
72586;SDS011;60621;49.576;11.024;2023-06-01T05:41:43;7.05;;;3.10;;
72586;SDS011;60621;49.576;11.024;2023-06-01T05:43:10;8.23;;;2.97;;
72586;SDS011;60621;49.576;11.024;2023-06-01T05:44:35;6.40;;;2.78;;
72586;SDS011;60621;49.576;11.024;2023-06-01T05:45:50;6.30;;;3.00;;
72586;SDS011;60621;49.576;11.024;2023-06-01T05:46:57;6.95;;;2.72;;
72586;SDS011;60621;49.576;11.024;2023-06-01T05:48:24;5.55;;;2.58;;
72586;SDS011;60621;49.576;11.024;2023-06-01T05:49:57;7.45;;;2.63;;
72586;SDS011;60621;49.576;11.024;2023-06-01T05:51:34;5.57;;;2.33;;
72586;SDS011;60621;49.576;11.024;2023-06-01T05:52:55;5.75;;;2.42;;
72586;SDS011;60621;49.576;11.024;2023-06-01T05:54:18;6.85;;;2.63;;
72586;SDS011;60621;49.576;11.024;2023-06-01T05:55:51;4.93;;;2.30;;
72586;SDS011;60621;49.576;11.024;2023-06-01T05:57:05;5.25;;;2.53;;
72586;SDS011;60621;49.576;11.024;2023-06-01T05:58:47;5.18;;;2.40;;
72586;SDS011;60621;49.576;11.024;2023-06-01T05:59:57;5.65;;;2.65;;
72586;SDS011;60621;49.576;11.024;2023-06-01T06:01:07;5.78;;;2.65;;
72586;SDS011;60621;49.576;11.024;2023-06-01T06:02:27;4.75;;;2.42;;
72586;SDS011;60621;49.576;11.024;2023-06-01T06:04:36;6.32;;;2.30;;
72586;SDS011;60621;49.576;11.024;2023-06-01T06:06:04;5.15;;;2.25;;
72586;SDS011;60621;49.576;11.024;2023-06-01T06:07:12;5.63;;;2.67;;
72586;SDS011;60621;49.576;11.024;2023-06-01T06:08:36;7.32;;;2.45;;
72586;SDS011;60621;49.576;11.024;2023-06-01T06:09:39;5.88;;;2.28;;
72586;SDS011;60621;49.576;11.024;2023-06-01T06:10:57;5.78;;;2.50;;
72586;SDS011;60621;49.576;11.024;2023-06-01T06:12:04;6.15;;;2.42;;
72586;SDS011;60621;49.576;11.024;2023-06-01T06:13:16;7.47;;;2.40;;
72586;SDS011;60621;49.576;11.024;2023-06-01T06:14:47;6.10;;;2.20;;
72586;SDS011;60621;49.576;11.024;2023-06-01T06:16:09;6.60;;;2.40;;
72586;SDS011;60621;49.576;11.024;2023-06-01T06:18:08;5.75;;;2.65;;
72586;SDS011;60621;49.576;11.024;2023-06-01T06:19:16;5.63;;;2.20;;
72586;SDS011;60621;49.576;11.024;2023-06-01T06:20:55;5.90;;;2.30;;
72586;SDS011;60621;49.576;11.024;2023-06-01T06:22:54;5.57;;;2.40;;
72586;SDS011;60621;49.576;11.024;2023-06-01T06:27:14;5.38;;;2.50;;
72586;SDS011;60621;49.576;11.024;2023-06-01T06:28:23;5.93;;;2.65;;
72586;SDS011;60621;49.576;11.024;2023-06-01T06:29:30;6.35;;;2.10;;
72586;SDS011;60621;49.576;11.024;2023-06-01T06:33:07;6.88;;;2.90;;
72586;SDS011;60621;49.576;11.024;2023-06-01T06:37:47;7.50;;;2.75;;
72586;SDS011;60621;49.576;11.024;2023-06-01T06:39:19;6.32;;;3.03;;
72586;SDS011;60621;49.576;11.024;2023-06-01T06:40:22;5.60;;;2.45;;
72586;SDS011;60621;49.576;11.024;2023-06-01T06:41:24;5.75;;;2.20;;
72586;SDS011;60621;49.576;11.024;2023-06-01T06:42:26;7.35;;;2.47;;
72586;SDS011;60621;49.576;11.024;2023-06-01T06:43:28;6.95;;;2.47;;
72586;SDS011;60621;49.576;11.024;2023-06-01T06:44:30;4.95;;;2.40;;
72586;SDS011;60621;49.576;11.024;2023-06-01T06:45:32;10.05;;;2.58;;
72586;SDS011;60621;49.576;11.024;2023-06-01T06:46:34;8.18;;;2.63;;
72586;SDS011;60621;49.576;11.024;2023-06-01T06:47:36;5.22;;;2.47;;
72586;SDS011;60621;49.576;11.024;2023-06-01T06:48:38;6.32;;;2.60;;
72586;SDS011;60621;49.576;11.024;2023-06-01T06:49:40;7.15;;;2.75;;
72586;SDS011;60621;49.576;11.024;2023-06-01T06:50:41;6.35;;;2.95;;
72586;SDS011;60621;49.576;11.024;2023-06-01T06:51:45;9.10;;;2.75;;
72586;SDS011;60621;49.576;11.024;2023-06-01T06:52:47;6.43;;;2.70;;
72586;SDS011;60621;49.576;11.024;2023-06-01T06:53:49;6.18;;;2.53;;
72586;SDS011;60621;49.576;11.024;2023-06-01T06:54:50;7.15;;;2.70;;
72586;SDS011;60621;49.576;11.024;2023-06-01T06:55:52;5.60;;;2.53;;
72586;SDS011;60621;49.576;11.024;2023-06-01T07:11:06;6.75;;;2.42;;
72586;SDS011;60621;49.576;11.024;2023-06-01T07:12:08;8.48;;;2.63;;
72586;SDS011;60621;49.576;11.024;2023-06-01T07:13:10;6.03;;;2.28;;
72586;SDS011;60621;49.576;11.024;2023-06-01T07:14:11;7.22;;;2.30;;
72586;SDS011;60621;49.576;11.024;2023-06-01T07:15:13;4.50;;;2.13;;
72586;SDS011;60621;49.576;11.024;2023-06-01T07:16:15;5.55;;;2.60;;
72586;SDS011;60621;49.576;11.024;2023-06-01T07:17:17;5.82;;;2.53;;
72586;SDS011;60621;49.576;11.024;2023-06-01T07:18:19;6.25;;;2.15;;
72586;SDS011;60621;49.576;11.024;2023-06-01T07:19:20;8.07;;;2.47;;
72586;SDS011;60621;49.576;11.024;2023-06-01T07:20:23;5.22;;;2.20;;
72586;SDS011;60621;49.576;11.024;2023-06-01T07:21:24;6.55;;;2.58;;
72586;SDS011;60621;49.576;11.024;2023-06-01T07:22:32;6.03;;;2.38;;
72586;SDS011;60621;49.576;11.024;2023-06-01T07:24:04;5.32;;;2.10;;
72586;SDS011;60621;49.576;11.024;2023-06-01T07:25:06;6.60;;;2.20;;
72586;SDS011;60621;49.576;11.024;2023-06-01T07:26:08;5.93;;;2.28;;